createdAt,value
2022-11-06T00:01:18.214Z,93.70
2022-11-06T00:03:48.063Z,93.70
2022-11-06T00:06:39.069Z,93.70
2022-11-06T00:09:12.034Z,93.80
2022-11-06T00:11:43.042Z,93.80
2022-11-06T00:14:15.977Z,93.80
2022-11-06T00:16:49.016Z,93.80
2022-11-06T00:19:19.811Z,93.80
2022-11-06T00:21:51.890Z,93.80
2022-11-06T00:24:21.839Z,93.80
2022-11-06T00:26:54.342Z,93.90
2022-11-06T00:29:24.753Z,93.90
2022-11-06T00:31:54.719Z,94.00
2022-11-06T00:34:25.685Z,94.00
2022-11-06T00:36:55.530Z,94.00
2022-11-06T00:39:25.453Z,94.00
2022-11-06T00:41:55.352Z,94.00
2022-11-06T00:44:25.315Z,94.00
2022-11-06T00:46:55.254Z,94.00
2022-11-06T00:49:25.174Z,94.00
2022-11-06T00:51:55.139Z,94.00
2022-11-06T00:54:24.997Z,94.00
2022-11-06T00:56:55.031Z,94.00
2022-11-06T00:59:24.955Z,94.10
2022-11-06T01:01:54.888Z,94.10
2022-11-06T01:04:27.236Z,94.10
2022-11-06T01:06:58.640Z,94.00
2022-11-06T01:09:30.896Z,94.00
2022-11-06T01:12:16.907Z,93.90
2022-11-06T01:14:47.018Z,93.80
2022-11-06T01:17:16.752Z,93.80
2022-11-06T01:19:46.339Z,93.90
2022-11-06T01:22:16.020Z,93.90
2022-11-06T01:24:45.663Z,93.90
2022-11-06T01:27:26.551Z,93.90
2022-11-06T01:29:57.237Z,93.90
2022-11-06T01:32:26.776Z,93.90
2022-11-06T01:34:56.349Z,93.90
2022-11-06T01:37:25.954Z,93.90
2022-11-06T01:39:55.495Z,93.90
2022-11-06T01:42:25.036Z,93.80
2022-11-06T01:45:13.639Z,93.90
2022-11-06T01:47:43.418Z,93.90
2022-11-06T01:50:14.587Z,93.80
2022-11-06T01:52:45.305Z,93.80
2022-11-06T01:55:23.143Z,93.70
2022-11-06T01:57:53.302Z,93.50
2022-11-06T02:00:23.201Z,93.40
2022-11-06T02:02:53.322Z,93.20
2022-11-06T02:05:23.137Z,93.10
2022-11-06T02:07:55.609Z,92.90
2022-11-06T02:10:25.877Z,92.80
2022-11-06T02:13:26.447Z,92.70
2022-11-06T02:16:24.072Z,92.60
2022-11-06T02:19:20.657Z,92.50
2022-11-06T02:22:23.646Z,92.50
2022-11-06T02:25:17.975Z,92.40
2022-11-06T02:27:53.386Z,92.30
2022-11-06T02:30:23.366Z,92.20
2022-11-06T02:33:10.269Z,92.10
2022-11-06T02:35:48.841Z,92.00
2022-11-06T02:38:26.757Z,91.80
2022-11-06T02:41:00.247Z,91.80
2022-11-06T02:43:41.986Z,91.50
2022-11-06T02:46:17.735Z,91.40
2022-11-06T02:48:55.461Z,91.30
2022-11-06T02:51:28.403Z,91.10
2022-11-06T02:54:03.016Z,91.00
2022-11-06T02:56:38.474Z,90.90
2022-11-06T02:59:21.022Z,90.80
2022-11-06T03:02:06.556Z,90.60
2022-11-06T03:04:50.003Z,90.50
2022-11-06T03:07:32.347Z,90.30
2022-11-06T03:10:03.009Z,90.20
2022-11-06T03:13:00.634Z,90.00
2022-11-06T03:15:51.779Z,89.70
2022-11-06T03:18:35.273Z,89.20
2022-11-06T03:21:20.708Z,89.00
2022-11-06T03:23:56.256Z,88.70
2022-11-06T03:26:50.861Z,88.40
2022-11-06T03:29:51.532Z,88.30
2022-11-06T03:32:30.364Z,88.20
2022-11-06T03:35:14.835Z,87.90
2022-11-06T03:37:56.242Z,87.40
2022-11-06T03:40:30.849Z,86.80
2022-11-06T03:43:04.664Z,85.90
2022-11-06T03:45:35.783Z,84.40
2022-11-06T03:48:33.568Z,84.30
2022-11-06T03:51:06.942Z,83.70
2022-11-06T03:54:00.510Z,83.40
2022-11-06T03:56:54.857Z,83.50
2022-11-06T03:59:28.700Z,83.10
2022-11-06T04:02:00.922Z,83.10
2022-11-06T04:04:38.971Z,83.00
2022-11-06T04:07:19.207Z,82.80
2022-11-06T04:10:15.745Z,82.10
2022-11-06T04:13:06.747Z,81.70
2022-11-06T04:15:53.543Z,81.50
2022-11-06T04:18:23.659Z,81.40
2022-11-06T04:21:36.051Z,81.50
2022-11-06T04:24:51.243Z,81.20
2022-11-06T04:27:59.976Z,80.80
2022-11-06T04:30:36.046Z,80.40
2022-11-06T04:33:22.519Z,80.30
2022-11-06T04:36:26.417Z,80.20
2022-11-06T04:39:20.313Z,79.80
2022-11-06T04:42:07.847Z,79.70
2022-11-06T04:44:48.095Z,79.00
2022-11-06T04:47:21.344Z,78.90
2022-11-06T04:49:54.839Z,79.00
2022-11-06T04:52:30.749Z,78.60
2022-11-06T04:55:01.078Z,78.60
2022-11-06T04:57:30.913Z,79.20
2022-11-06T05:00:00.936Z,78.20
2022-11-06T05:02:30.930Z,77.80
2022-11-06T05:05:00.785Z,78.00
2022-11-06T05:07:33.923Z,78.10
2022-11-06T05:10:07.930Z,77.60
2022-11-06T05:12:37.890Z,77.50
2022-11-06T05:15:08.255Z,77.10
2022-11-06T05:17:38.221Z,77.00
2022-11-06T05:20:09.656Z,77.00
2022-11-06T05:23:03.793Z,77.20
2022-11-06T05:25:37.608Z,76.50
2022-11-06T05:28:09.170Z,75.50
2022-11-06T05:30:40.424Z,75.20
2022-11-06T05:33:10.329Z,74.70
2022-11-06T05:35:40.658Z,75.00
2022-11-06T05:38:10.789Z,74.90
2022-11-06T05:40:41.180Z,74.60
2022-11-06T05:43:11.195Z,74.40
2022-11-06T05:45:41.169Z,73.90
2022-11-06T05:48:11.577Z,72.80
2022-11-06T05:50:41.687Z,72.70
2022-11-06T05:53:11.755Z,72.70
2022-11-06T05:55:41.618Z,73.10
2022-11-06T05:58:11.892Z,72.50
2022-11-06T06:00:42.178Z,72.50
2022-11-06T06:03:13.885Z,72.50
2022-11-06T06:05:43.829Z,72.60
2022-11-06T06:08:14.355Z,71.80
2022-11-06T06:10:48.754Z,71.90
2022-11-06T06:13:18.537Z,71.80
2022-11-06T06:15:48.409Z,71.80
2022-11-06T06:18:18.201Z,72.40
2022-11-06T06:20:47.828Z,72.10
2022-11-06T06:23:17.351Z,72.20
2022-11-06T06:25:46.990Z,71.80
2022-11-06T06:28:16.731Z,71.90
2022-11-06T06:30:46.374Z,71.30
2022-11-06T06:33:15.986Z,71.10
2022-11-06T06:35:45.604Z,71.10
2022-11-06T06:38:15.511Z,71.30
2022-11-06T06:40:45.337Z,71.10
2022-11-06T06:43:14.964Z,71.00
2022-11-06T06:45:44.568Z,71.00
2022-11-06T06:48:14.801Z,70.90
2022-11-06T06:50:44.538Z,70.80
2022-11-06T06:53:15.009Z,70.60
2022-11-06T06:55:44.540Z,70.70
2022-11-06T06:58:17.890Z,70.50
2022-11-06T07:00:48.324Z,70.30
2022-11-06T07:03:17.926Z,70.30
2022-11-06T07:05:48.532Z,70.50
2022-11-06T07:08:22.362Z,70.60
2022-11-06T07:10:52.198Z,70.80
2022-11-06T07:13:22.133Z,70.00
2022-11-06T07:15:52.123Z,70.00
2022-11-06T07:18:22.045Z,69.70
2022-11-06T07:20:51.935Z,69.70
2022-11-06T07:23:24.803Z,70.00
2022-11-06T07:25:55.952Z,70.30
2022-11-06T07:28:26.288Z,70.20
2022-11-06T07:31:00.147Z,69.60
2022-11-06T07:33:30.559Z,69.10
2022-11-06T07:36:19.384Z,68.90
2022-11-06T07:38:49.256Z,69.20
2022-11-06T07:41:19.479Z,68.50
2022-11-06T07:43:52.101Z,68.60
2022-11-06T07:46:22.018Z,68.60
2022-11-06T07:48:53.015Z,68.90
2022-11-06T07:51:23.961Z,68.80
2022-11-06T07:53:53.861Z,68.90
2022-11-06T07:56:24.256Z,68.80
2022-11-06T07:58:55.294Z,68.80
2022-11-06T08:01:25.317Z,68.50
2022-11-06T08:03:55.309Z,68.20
2022-11-06T08:06:25.228Z,68.50
2022-11-06T08:08:58.926Z,68.50
2022-11-06T08:11:29.408Z,68.30
2022-11-06T08:14:01.495Z,68.30
2022-11-06T08:16:32.139Z,68.30
2022-11-06T08:19:01.777Z,68.10
2022-11-06T08:21:31.378Z,67.90
2022-11-06T08:24:00.975Z,67.40
2022-11-06T08:26:31.843Z,67.40
2022-11-06T08:29:01.589Z,67.60
2022-11-06T08:31:31.584Z,68.00
2022-11-06T08:34:01.147Z,68.00
2022-11-06T08:36:30.740Z,67.50
2022-11-06T08:39:00.343Z,67.70
2022-11-06T08:41:29.928Z,67.70
2022-11-06T08:43:59.802Z,67.60
2022-11-06T08:46:29.330Z,67.70
2022-11-06T08:48:59.028Z,67.20
2022-11-06T08:51:34.188Z,67.00
2022-11-06T08:54:03.827Z,67.00
2022-11-06T08:56:33.867Z,68.00
2022-11-06T08:59:03.389Z,67.40
2022-11-06T09:01:33.346Z,66.80
2022-11-06T09:04:03.458Z,67.20
2022-11-06T09:06:33.628Z,67.00
2022-11-06T09:09:03.245Z,67.10
2022-11-06T09:11:34.952Z,67.10
2022-11-06T09:14:04.790Z,67.00
2022-11-06T09:16:34.826Z,67.20
2022-11-06T09:19:04.475Z,67.50
2022-11-06T09:21:38.329Z,67.70
2022-11-06T09:24:08.410Z,67.50
2022-11-06T09:26:38.397Z,67.30
2022-11-06T09:29:08.027Z,67.50
2022-11-06T09:31:37.609Z,67.70
2022-11-06T09:34:07.477Z,67.80
2022-11-06T09:36:38.554Z,67.90
2022-11-06T09:39:08.142Z,67.80
2022-11-06T09:42:08.567Z,68.70
2022-11-06T09:45:17.664Z,68.10
2022-11-06T09:47:54.730Z,68.00
2022-11-06T09:50:31.219Z,68.10
2022-11-06T09:53:14.495Z,68.10
2022-11-06T09:55:47.383Z,68.20
2022-11-06T09:58:28.743Z,68.30
2022-11-06T10:01:00.208Z,68.50
2022-11-06T10:03:42.153Z,68.40
2022-11-06T10:06:15.214Z,68.50
2022-11-06T10:08:46.100Z,68.60
2022-11-06T10:11:57.537Z,68.80
2022-11-06T10:14:52.202Z,69.10
2022-11-06T10:17:59.252Z,69.30
2022-11-06T10:20:36.736Z,69.20
2022-11-06T10:23:41.743Z,69.30
2022-11-06T10:26:22.003Z,69.50
2022-11-06T10:29:30.757Z,69.60
2022-11-06T10:32:36.637Z,69.80
2022-11-06T10:35:29.008Z,70.20
2022-11-06T10:38:19.355Z,70.70
2022-11-06T10:40:52.058Z,71.10
2022-11-06T10:43:38.313Z,71.30
2022-11-06T10:46:32.082Z,71.60
2022-11-06T10:49:04.612Z,72.00
2022-11-06T10:52:14.091Z,72.40
2022-11-06T10:55:15.057Z,72.90
2022-11-06T10:58:06.954Z,73.40
2022-11-06T11:00:40.139Z,74.10
2022-11-06T11:03:28.499Z,74.30
2022-11-06T11:05:58.497Z,74.50
2022-11-06T11:08:45.138Z,74.70
2022-11-06T11:11:33.023Z,75.10
2022-11-06T11:14:20.258Z,75.40
2022-11-06T11:16:50.819Z,76.00
2022-11-06T11:19:43.142Z,75.90
2022-11-06T11:22:27.630Z,76.40
2022-11-06T11:25:09.972Z,76.80
2022-11-06T11:27:45.816Z,77.20
2022-11-06T11:30:31.341Z,77.50
2022-11-06T11:33:01.680Z,77.70
2022-11-06T11:35:33.166Z,78.00
2022-11-06T11:38:15.947Z,78.30
2022-11-06T11:40:51.501Z,78.80
2022-11-06T11:43:29.985Z,79.00
2022-11-06T11:46:06.428Z,79.60
2022-11-06T11:49:00.096Z,79.90
2022-11-06T11:51:46.897Z,80.30
2022-11-06T11:54:27.911Z,80.50
2022-11-06T11:57:21.799Z,80.70
2022-11-06T12:00:02.009Z,80.80
2022-11-06T12:02:38.315Z,81.20
2022-11-06T12:05:19.278Z,81.30
2022-11-06T12:07:57.033Z,81.40
2022-11-06T12:10:43.671Z,81.80
2022-11-06T12:13:21.966Z,82.60
2022-11-06T12:16:20.443Z,82.60
2022-11-06T12:18:58.517Z,82.80
2022-11-06T12:21:37.447Z,83.00
2022-11-06T12:24:16.600Z,83.30
2022-11-06T12:27:25.298Z,83.50
2022-11-06T12:30:19.597Z,83.90
2022-11-06T12:33:45.480Z,84.20
2022-11-06T12:36:16.441Z,84.60
2022-11-06T12:39:05.166Z,84.90
2022-11-06T12:41:45.803Z,85.10
2022-11-06T12:44:17.754Z,85.10
2022-11-06T12:47:26.695Z,85.40
2022-11-06T12:50:40.680Z,85.60
2022-11-06T12:53:31.292Z,85.80
2022-11-06T12:56:28.149Z,85.90
2022-11-06T12:59:37.907Z,86.10
2022-11-06T13:02:38.824Z,86.30
2022-11-06T13:05:49.194Z,86.30
2022-11-06T13:08:46.656Z,86.40
2022-11-06T13:11:42.218Z,86.70
2022-11-06T13:14:45.486Z,86.80
2022-11-06T13:17:30.786Z,86.60
2022-11-06T13:20:33.561Z,86.90
2022-11-06T13:23:18.742Z,87.00
2022-11-06T13:26:27.607Z,86.90
2022-11-06T13:29:04.736Z,87.30
2022-11-06T13:31:56.539Z,87.30
2022-11-06T13:34:35.901Z,87.50
2022-11-06T13:37:18.532Z,87.50
2022-11-06T13:40:06.914Z,87.70
2022-11-06T13:42:44.972Z,87.90
2022-11-06T13:45:16.994Z,88.10
2022-11-06T13:48:16.331Z,89.20
2022-11-06T13:51:19.428Z,88.50
2022-11-06T13:54:11.622Z,88.50
2022-11-06T13:57:21.912Z,88.70
2022-11-06T14:00:20.224Z,88.80
2022-11-06T14:03:28.896Z,88.90
2022-11-06T14:06:10.924Z,88.90
2022-11-06T14:08:58.333Z,89.10
2022-11-06T14:11:54.288Z,89.10
2022-11-06T14:14:30.244Z,89.10
2022-11-06T14:17:24.271Z,89.20
2022-11-06T14:20:28.605Z,89.40
2022-11-06T14:23:18.062Z,89.20
2022-11-06T14:25:59.930Z,89.10
2022-11-06T14:28:45.915Z,89.40
2022-11-06T14:31:54.592Z,89.40
2022-11-06T14:34:34.859Z,89.50
2022-11-06T14:37:48.854Z,89.60
2022-11-06T14:40:33.995Z,89.60
2022-11-06T14:43:14.150Z,89.60
2022-11-06T14:46:12.013Z,89.70
2022-11-06T14:48:46.435Z,89.80
2022-11-06T14:51:17.453Z,89.90
2022-11-06T14:53:58.378Z,89.90
2022-11-06T14:56:40.957Z,89.80
2022-11-06T14:59:39.060Z,90.00
2022-11-06T15:02:30.240Z,90.40
2022-11-06T15:05:07.707Z,90.00
2022-11-06T15:08:15.432Z,90.10
2022-11-06T15:10:56.473Z,90.20
2022-11-06T15:13:28.642Z,90.10
2022-11-06T15:16:06.031Z,90.10
2022-11-06T15:18:39.927Z,90.10
2022-11-06T15:21:12.757Z,90.20
2022-11-06T15:24:05.951Z,90.30
2022-11-06T15:26:47.693Z,90.30
2022-11-06T15:29:36.314Z,90.20
2022-11-06T15:32:16.943Z,90.30
2022-11-06T15:35:03.163Z,90.30
2022-11-06T15:37:44.064Z,90.30
2022-11-06T15:40:35.340Z,90.30
2022-11-06T15:43:29.434Z,90.40
2022-11-06T15:46:18.860Z,90.30
2022-11-06T15:48:49.423Z,90.40
2022-11-06T15:51:28.779Z,90.40
2022-11-06T15:53:58.771Z,90.40
2022-11-06T15:56:36.682Z,90.50
2022-11-06T15:59:14.946Z,90.40
2022-11-06T16:01:51.401Z,90.50
2022-11-06T16:04:25.065Z,90.40
2022-11-06T16:06:59.716Z,90.50
2022-11-06T16:09:30.993Z,90.50
2022-11-06T16:12:01.636Z,90.50
2022-11-06T16:14:41.844Z,90.60
2022-11-06T16:17:28.168Z,90.70
2022-11-06T16:20:02.504Z,90.70
2022-11-06T16:22:36.116Z,90.70
2022-11-06T16:25:09.080Z,90.60
2022-11-06T16:27:41.961Z,90.70
2022-11-06T16:30:26.769Z,90.70
2022-11-06T16:32:56.724Z,90.80
2022-11-06T16:35:40.986Z,90.80
2022-11-06T16:38:40.864Z,90.80
2022-11-06T16:41:35.515Z,90.80
2022-11-06T16:44:34.577Z,90.80
2022-11-06T16:47:23.246Z,90.90
2022-11-06T16:49:55.432Z,90.90
2022-11-06T16:52:41.707Z,90.90
2022-11-06T16:55:27.421Z,90.90
2022-11-06T16:58:01.492Z,90.90
2022-11-06T17:00:34.651Z,91.00
2022-11-06T17:03:10.068Z,91.00
2022-11-06T17:05:40.807Z,91.00
2022-11-06T17:08:38.983Z,91.00
2022-11-06T17:11:23.498Z,91.00
2022-11-06T17:13:54.427Z,91.00
2022-11-06T17:16:27.379Z,91.00
2022-11-06T17:18:57.340Z,91.00
2022-11-06T17:21:29.225Z,91.00
2022-11-06T17:24:12.053Z,91.10
2022-11-06T17:26:49.369Z,91.10
2022-11-06T17:29:22.702Z,91.20
2022-11-06T17:31:54.341Z,91.20
2022-11-06T17:34:25.550Z,91.20
2022-11-06T17:36:55.599Z,91.20
2022-11-06T17:39:26.165Z,91.20
2022-11-06T17:41:56.172Z,91.30
2022-11-06T17:44:26.411Z,91.40
2022-11-06T17:46:56.260Z,91.20
2022-11-06T17:49:26.112Z,91.20
2022-11-06T17:52:00.241Z,91.40
2022-11-06T17:54:33.798Z,91.40
2022-11-06T17:57:06.865Z,91.50
2022-11-06T17:59:40.702Z,91.50
2022-11-06T18:02:29.760Z,91.50
2022-11-06T18:05:07.435Z,91.50
2022-11-06T18:07:39.599Z,91.60
2022-11-06T18:10:09.673Z,91.60
2022-11-06T18:12:42.297Z,91.60
2022-11-06T18:15:12.409Z,91.70
2022-11-06T18:17:41.958Z,91.70
2022-11-06T18:20:13.849Z,91.80
2022-11-06T18:22:43.375Z,91.70
2022-11-06T18:25:12.925Z,91.70
2022-11-06T18:27:42.503Z,91.70
2022-11-06T18:30:13.097Z,91.70
2022-11-06T18:32:42.636Z,91.70
2022-11-06T18:35:12.462Z,92.10
2022-11-06T18:37:42.095Z,91.80
2022-11-06T18:40:12.358Z,91.80
2022-11-06T18:42:43.284Z,91.80
2022-11-06T18:45:13.306Z,91.80
2022-11-06T18:47:42.903Z,91.90
2022-11-06T18:50:12.612Z,91.90
2022-11-06T18:52:57.562Z,91.90
2022-11-06T18:55:27.928Z,91.90
2022-11-06T18:57:57.759Z,91.90
2022-11-06T19:00:29.089Z,92.00
2022-11-06T19:02:58.773Z,91.90
2022-11-06T19:05:28.342Z,91.90
2022-11-06T19:08:00.566Z,92.00
2022-11-06T19:10:35.783Z,92.00
2022-11-06T19:13:05.268Z,92.00
2022-11-06T19:15:34.826Z,92.00
2022-11-06T19:18:04.965Z,91.90
2022-11-06T19:20:34.587Z,92.00
2022-11-06T19:23:06.325Z,92.00
2022-11-06T19:25:35.902Z,91.90
2022-11-06T19:28:05.521Z,91.90
2022-11-06T19:30:36.174Z,92.00
2022-11-06T19:33:06.485Z,92.00
2022-11-06T19:35:36.607Z,92.00
2022-11-06T19:38:10.079Z,92.00
2022-11-06T19:40:39.644Z,92.00
2022-11-06T19:43:11.330Z,92.10
2022-11-06T19:45:42.645Z,92.10
2022-11-06T19:48:12.305Z,92.10
2022-11-06T19:50:59.619Z,92.00
2022-11-06T19:53:30.943Z,92.10
2022-11-06T19:56:00.719Z,92.10
2022-11-06T19:58:30.294Z,92.20
2022-11-06T20:00:59.997Z,92.20
2022-11-06T20:03:29.807Z,92.20
2022-11-06T20:06:02.309Z,92.20
2022-11-06T20:08:35.707Z,92.20
2022-11-06T20:11:11.482Z,92.40
2022-11-06T20:13:43.013Z,92.50
2022-11-06T20:16:17.759Z,92.50
2022-11-06T20:19:01.105Z,92.50
2022-11-06T20:21:31.413Z,92.50
2022-11-06T20:24:02.437Z,92.50
2022-11-06T20:26:32.432Z,92.50
2022-11-06T20:29:03.694Z,92.40
2022-11-06T20:31:35.127Z,92.50
2022-11-06T20:34:05.379Z,92.40
2022-11-06T20:36:37.303Z,92.50
2022-11-06T20:39:07.833Z,92.40
2022-11-06T20:41:38.766Z,92.50
2022-11-06T20:44:10.137Z,92.40
2022-11-06T20:46:39.993Z,92.30
2022-11-06T20:49:10.279Z,92.40
2022-11-06T20:52:11.575Z,92.30
2022-11-06T20:54:30.828Z,92.30
2022-11-06T20:57:00.799Z,92.30
2022-11-06T20:59:31.181Z,92.30
2022-11-06T21:02:01.268Z,92.40
2022-11-06T21:04:31.308Z,92.40
2022-11-06T21:07:02.085Z,92.40
2022-11-06T21:09:31.978Z,92.40
2022-11-06T21:12:02.994Z,92.40
2022-11-06T21:14:32.966Z,92.50
2022-11-06T21:17:05.422Z,92.50
2022-11-06T21:19:38.631Z,92.50
2022-11-06T21:22:08.529Z,92.60
2022-11-06T21:24:38.392Z,92.60
2022-11-06T21:27:08.217Z,92.60
2022-11-06T21:29:38.204Z,92.60
2022-11-06T21:32:08.167Z,92.70
2022-11-06T21:34:41.214Z,92.70
2022-11-06T21:37:11.197Z,92.60
2022-11-06T21:39:44.073Z,92.70
2022-11-06T21:42:14.046Z,92.70
2022-11-06T21:44:43.955Z,92.80
2022-11-06T21:47:13.854Z,92.80
2022-11-06T21:49:55.407Z,92.90
2022-11-06T21:52:45.173Z,92.90
2022-11-06T21:55:34.706Z,93.00
2022-11-06T21:58:07.017Z,93.00
2022-11-06T22:00:41.485Z,92.90
2022-11-06T22:03:14.659Z,92.90
2022-11-06T22:05:45.067Z,92.90
2022-11-06T22:08:15.478Z,93.00
2022-11-06T22:10:45.246Z,93.00
2022-11-06T22:13:16.945Z,93.00
2022-11-06T22:15:47.288Z,93.00
2022-11-06T22:18:16.860Z,93.10
2022-11-06T22:20:47.646Z,92.80
2022-11-06T22:23:18.484Z,92.90
2022-11-06T22:25:48.497Z,93.00
2022-11-06T22:28:18.054Z,93.10
2022-11-06T22:30:47.715Z,93.20
2022-11-06T22:33:18.942Z,93.20
2022-11-06T22:35:49.614Z,93.10
2022-11-06T22:38:19.583Z,93.10
2022-11-06T22:41:00.023Z,93.10
2022-11-06T22:43:30.372Z,93.10
2022-11-06T22:46:05.517Z,93.10
2022-11-06T22:48:35.849Z,93.10
2022-11-06T22:51:10.765Z,93.10
2022-11-06T22:53:40.593Z,93.10
2022-11-06T22:56:10.792Z,93.20
2022-11-06T22:58:41.441Z,93.20
2022-11-06T23:01:12.603Z,93.20
2022-11-06T23:03:42.770Z,93.20
2022-11-06T23:06:12.586Z,93.20
2022-11-06T23:08:46.786Z,93.30
2022-11-06T23:11:21.535Z,93.30
2022-11-06T23:13:52.081Z,93.30
2022-11-06T23:16:47.472Z,93.30
2022-11-06T23:19:19.669Z,93.30
2022-11-06T23:21:49.617Z,93.30
2022-11-06T23:24:19.662Z,93.40
2022-11-06T23:26:49.605Z,93.50
2022-11-06T23:29:19.530Z,93.50
2022-11-06T23:31:51.624Z,93.50
2022-11-06T23:34:21.451Z,93.60
2022-11-06T23:37:01.296Z,93.60
2022-11-06T23:39:31.173Z,93.50
2022-11-06T23:42:01.137Z,93.50
2022-11-06T23:44:53.558Z,93.60
2022-11-06T23:47:23.449Z,93.70
2022-11-06T23:49:54.877Z,93.70
2022-11-06T23:52:25.096Z,93.70
2022-11-06T23:54:55.098Z,93.70
2022-11-06T23:57:30.358Z,93.80
